Townville, South Carolina
Current Conditions -  °F | °C
As of 6:54 AM on Tuesday 27 Jan 2015 (Local Time) from KCEU Reporting Station
Overcast Overcast  
Wind Chill: 30°   Ceiling: 4700
Heat Index: 36°   Visibility: 10mi
Dew Point: 23°   Wind: 7mph
Humidity: 59%   Direction: 240°WSW
Pressure: 29.82"   Gusts: NA
Location:  34.56°N, 82.9°W
Report Text: KCEU 271154Z AUTO 24006KT 10SM BKN047 OVC075 02/M05 A2982 RMK AO2 SLP100 T00221050 10022 20000 53003
Loading
Personal Weather Stations






























Interactive Weather Map New forecast layout! Learn more

10-Day Weather Forecast

Advertisements
Track Severe Weather on mobile